createdAt,value
2018-04-06T00:00:41.690Z,78.61
2018-04-06T00:01:41.683Z,78.32
2018-04-06T00:02:41.670Z,77.66
2018-04-06T00:03:41.673Z,77.94
2018-04-06T00:04:41.733Z,77.75
2018-04-06T00:05:41.653Z,77.22
2018-04-06T00:06:41.645Z,77.37
2018-04-06T00:07:41.646Z,77.09
2018-04-06T00:08:41.636Z,77.75
2018-04-06T00:09:41.634Z,77.47
2018-04-06T00:10:41.621Z,77.47
2018-04-06T00:11:41.637Z,77.84
2018-04-06T00:12:41.617Z,77.56
2018-04-06T00:13:41.611Z,77.56
2018-04-06T00:14:41.599Z,77.47
2018-04-06T00:15:41.590Z,77.66
2018-04-06T00:16:41.585Z,77.37
2018-04-06T00:17:41.593Z,77.18
2018-04-06T00:18:41.574Z,77.84
2018-04-06T00:19:41.570Z,78.03
2018-04-06T00:20:41.599Z,78.03
2018-04-06T00:21:41.557Z,78.80
2018-04-06T00:22:41.551Z,79.08
2018-04-06T00:23:41.540Z,79.36
2018-04-06T00:24:41.538Z,79.94
2018-04-06T00:25:41.539Z,79.74
2018-04-06T00:26:41.524Z,79.84
2018-04-06T00:27:41.529Z,79.65
2018-04-06T00:28:41.520Z,79.46
2018-04-06T00:29:41.502Z,79.36
2018-04-06T00:30:41.494Z,79.36
2018-04-06T00:31:41.489Z,79.46
2018-04-06T00:32:41.486Z,79.55
2018-04-06T00:33:41.478Z,79.46
2018-04-06T00:34:41.467Z,79.71
2018-04-06T00:35:41.476Z,79.84
2018-04-06T00:36:41.457Z,79.27
2018-04-06T00:37:41.448Z,78.80
2018-04-06T00:38:41.443Z,78.61
2018-04-06T00:39:41.438Z,78.51
2018-04-06T00:40:41.428Z,78.13
2018-04-06T00:41:41.428Z,77.56
2018-04-06T00:42:41.415Z,77.75
2018-04-06T00:43:41.413Z,77.84
2018-04-06T00:44:41.407Z,77.28
2018-04-06T00:45:41.390Z,76.99
2018-04-06T00:46:41.384Z,77.56
2018-04-06T00:47:41.381Z,77.18
2018-04-06T00:48:41.375Z,77.56
2018-04-06T00:49:41.366Z,77.75
2018-04-06T00:50:41.365Z,77.37
2018-04-06T00:51:41.346Z,77.47
2018-04-06T00:52:41.346Z,76.80
2018-04-06T00:53:41.337Z,77.09
2018-04-06T00:54:41.336Z,77.28
2018-04-06T00:55:41.338Z,76.99
2018-04-06T00:56:41.312Z,76.90
2018-04-06T00:57:41.319Z,76.71
2018-04-06T00:58:41.311Z,76.90
2018-04-06T00:59:41.292Z,76.80
2018-04-06T01:00:41.288Z,76.61
2018-04-06T01:01:41.280Z,76.90
2018-04-06T01:02:41.288Z,77.56
2018-04-06T01:03:41.270Z,77.75
2018-04-06T01:04:41.263Z,78.32
2018-04-06T01:05:41.272Z,78.32
2018-04-06T01:06:41.248Z,78.42
2018-04-06T01:07:41.250Z,78.80
2018-04-06T01:08:41.234Z,79.17
2018-04-06T01:09:41.233Z,79.17
2018-04-06T01:10:41.215Z,79.36
2018-04-06T01:11:41.209Z,79.08
2018-04-06T01:12:41.204Z,79.46
2018-04-06T01:13:41.220Z,79.36
2018-04-06T01:14:41.226Z,79.23
2018-04-06T01:15:41.181Z,79.52
2018-04-06T01:16:41.188Z,80.37
2018-04-06T01:17:41.193Z,80.08
2018-04-06T01:18:41.164Z,80.27
2018-04-06T01:19:41.160Z,80.65
2018-04-06T01:20:41.161Z,80.75
2018-04-06T01:21:41.153Z,80.65
2018-04-06T01:22:41.147Z,81.13
2018-04-06T01:23:41.134Z,80.65
2018-04-06T01:24:41.131Z,81.13
2018-04-06T01:25:41.128Z,81.88
2018-04-06T01:26:41.111Z,81.41
2018-04-06T01:27:41.102Z,81.51
2018-04-06T01:28:41.105Z,81.70
2018-04-06T01:29:41.091Z,81.60
2018-04-06T01:30:41.080Z,82.27
2018-04-06T01:31:41.092Z,81.88
2018-04-06T01:32:41.080Z,81.60
2018-04-06T01:33:41.062Z,81.98
2018-04-06T01:34:41.060Z,81.79
2018-04-06T01:35:41.046Z,81.88
2018-04-06T01:36:41.038Z,82.74
2018-04-06T01:37:41.042Z,82.65
2018-04-06T01:38:41.029Z,82.36
2018-04-06T01:39:41.031Z,82.42
2018-04-06T01:40:41.030Z,83.27
2018-04-06T01:41:41.011Z,83.84
2018-04-06T01:42:41.012Z,85.45
2018-04-06T01:43:40.999Z,85.07
2018-04-06T01:44:41.015Z,84.59
2018-04-06T01:45:40.996Z,85.26
2018-04-06T01:46:40.975Z,84.59
2018-04-06T01:47:40.983Z,85.17
2018-04-06T01:48:40.959Z,84.22
2018-04-06T01:49:40.959Z,84.03
2018-04-06T01:50:40.962Z,83.65
2018-04-06T01:51:40.945Z,84.50
2018-04-06T01:52:40.951Z,84.98
2018-04-06T01:53:40.922Z,84.41
2018-04-06T01:54:40.916Z,83.65
2018-04-06T01:55:40.909Z,83.46
2018-04-06T01:56:49.532Z,83.55
2018-04-06T01:58:34.311Z,83.08
2018-04-06T01:59:34.279Z,83.27
2018-04-06T02:00:34.272Z,83.84
2018-04-06T02:01:34.271Z,84.31
2018-04-06T02:02:34.261Z,84.78
2018-04-06T02:03:34.248Z,84.69
2018-04-06T02:04:34.246Z,84.98
2018-04-06T02:05:34.239Z,84.59
2018-04-06T02:06:34.228Z,85.64
2018-04-06T02:07:34.221Z,85.17
2018-04-06T02:08:34.221Z,85.36
2018-04-06T02:09:34.222Z,85.36
2018-04-06T02:10:34.192Z,85.26
2018-04-06T02:11:34.194Z,85.78
2018-04-06T02:12:34.183Z,86.93
2018-04-06T02:13:34.200Z,87.21
2018-04-06T02:14:34.168Z,85.83
2018-04-06T02:15:34.193Z,85.93
2018-04-06T02:16:34.156Z,86.26
2018-04-06T02:17:34.155Z,86.26
2018-04-06T02:18:34.136Z,86.35
2018-04-06T02:19:34.136Z,86.78
2018-04-06T02:20:34.139Z,86.55
2018-04-06T02:21:34.112Z,86.02
2018-04-06T02:22:34.113Z,86.16
2018-04-06T02:23:34.097Z,87.12
2018-04-06T02:24:34.219Z,86.83
2018-04-06T02:25:34.102Z,86.74
2018-04-06T02:26:34.081Z,86.74
2018-04-06T02:27:34.081Z,87.21
2018-04-06T02:29:55.102Z,89.20
2018-04-06T02:30:55.071Z,89.67
2018-04-06T02:31:55.066Z,89.29
2018-04-06T02:32:55.057Z,89.48
2018-04-06T02:33:55.045Z,89.20
2018-04-06T02:34:55.034Z,89.20
2018-04-06T02:35:55.048Z,89.20
2018-04-06T02:36:55.021Z,89.11
2018-04-06T02:37:55.017Z,89.01
2018-04-06T02:38:55.009Z,88.16
2018-04-06T02:39:54.996Z,87.30
2018-04-06T02:40:55.004Z,86.74
2018-04-06T02:41:54.981Z,86.83
2018-04-06T02:42:54.988Z,87.12
2018-04-06T02:43:54.984Z,87.49
2018-04-06T02:44:54.953Z,87.97
2018-04-06T02:45:54.944Z,88.25
2018-04-06T02:46:54.976Z,89.11
2018-04-06T02:47:54.937Z,89.67
2018-04-06T02:48:54.945Z,88.73
2018-04-06T02:49:54.913Z,88.35
2018-04-06T02:50:54.919Z,88.25
2018-04-06T02:51:54.909Z,88.92
2018-04-06T02:52:54.888Z,89.11
2018-04-06T02:53:54.902Z,88.73
2018-04-06T02:54:54.884Z,88.44
2018-04-06T02:55:54.871Z,88.25
2018-04-06T02:56:54.866Z,87.97
2018-04-06T02:57:54.854Z,88.06
2018-04-06T02:58:54.839Z,87.49
2018-04-06T02:59:54.832Z,87.49
2018-04-06T03:00:54.833Z,87.02
2018-04-06T03:01:54.819Z,87.02
2018-04-06T03:02:54.821Z,87.02
2018-04-06T03:22:09.361Z,87.97
2018-04-06T03:23:09.307Z,87.59
2018-04-06T03:25:02.734Z,87.77
2018-04-06T03:26:02.680Z,88.21
2018-04-06T03:27:02.646Z,88.30
2018-04-06T03:28:02.634Z,88.30
2018-04-06T03:29:02.636Z,88.96
2018-04-06T03:30:02.602Z,89.06
2018-04-06T03:31:02.607Z,88.87
2018-04-06T03:32:02.583Z,88.87
2018-04-06T03:33:02.574Z,89.53
2018-04-06T03:34:02.559Z,89.34
2018-04-06T03:35:02.557Z,89.63
2018-04-06T03:36:02.599Z,89.34
2018-04-06T03:37:02.553Z,90.58
2018-04-06T03:38:02.528Z,90.48
2018-04-06T03:39:02.544Z,90.20
2018-04-06T03:40:02.503Z,90.01
2018-04-06T03:41:02.513Z,90.01
2018-04-06T03:42:02.483Z,89.34
2018-04-06T03:43:02.495Z,90.10
2018-04-06T03:44:02.737Z,90.29
2018-04-06T03:45:02.462Z,90.29
2018-04-06T03:46:02.476Z,90.58
2018-04-06T03:47:02.471Z,90.58
2018-04-06T03:48:02.440Z,90.67
2018-04-06T03:49:02.429Z,90.58
2018-04-06T03:50:02.453Z,89.53
2018-04-06T03:51:02.434Z,88.30
2018-04-06T03:52:02.443Z,87.35
2018-04-06T03:53:02.503Z,87.40
2018-04-06T03:54:02.390Z,86.74
2018-04-06T03:55:02.382Z,86.74
2018-04-06T03:56:02.374Z,86.55
2018-04-06T03:57:02.358Z,86.79
2018-04-06T03:58:02.354Z,87.45
2018-04-06T03:59:02.337Z,87.54
2018-04-06T04:00:02.330Z,87.45
2018-04-06T04:01:02.389Z,87.54
2018-04-06T04:02:02.337Z,87.92
2018-04-06T04:03:02.309Z,87.64
2018-04-06T04:04:02.319Z,87.73
2018-04-06T04:05:02.296Z,87.73
2018-04-06T04:06:02.287Z,88.11
2018-04-06T04:07:02.276Z,88.49
2018-04-06T04:08:02.273Z,88.68
2018-04-06T04:09:02.279Z,88.87
2018-04-06T04:10:02.275Z,89.06
2018-04-06T04:11:02.281Z,89.53
2018-04-06T04:12:02.230Z,89.72
2018-04-06T04:13:02.242Z,89.63
2018-04-06T04:14:02.221Z,89.34
2018-04-06T04:15:02.247Z,89.63
2018-04-06T04:16:02.215Z,89.44
2018-04-06T04:17:02.193Z,90.01
2018-04-06T04:18:02.181Z,89.91
2018-04-06T04:19:02.171Z,90.20
2018-04-06T04:20:02.161Z,90.10
2018-04-06T04:21:02.160Z,90.39
2018-04-06T04:22:02.159Z,89.82
2018-04-06T04:23:02.182Z,89.06
2018-04-06T04:24:02.135Z,88.87
2018-04-06T04:25:02.119Z,89.34
2018-04-06T04:26:02.140Z,89.06
2018-04-06T04:27:02.102Z,89.44
2018-04-06T04:28:02.128Z,87.83
2018-04-06T04:29:02.084Z,88.21
2018-04-06T04:30:02.079Z,87.64
2018-04-06T04:31:02.097Z,88.68
2018-04-06T04:32:02.063Z,88.59
2018-04-06T04:33:02.059Z,89.06
2018-04-06T04:34:02.049Z,89.20
2018-04-06T04:35:02.040Z,89.30
2018-04-06T04:36:02.059Z,88.68
2018-04-06T04:37:02.061Z,87.92
2018-04-06T04:38:02.001Z,87.54
2018-04-06T04:39:01.994Z,87.83
2018-04-06T04:40:02.035Z,88.40
2018-04-06T04:41:01.980Z,88.78
2018-04-06T04:42:01.993Z,88.49
2018-04-06T04:43:02.027Z,86.69
2018-04-06T04:44:01.953Z,86.41
2018-04-06T04:45:01.936Z,88.02
2018-04-06T04:46:01.925Z,87.54
2018-04-06T04:47:01.945Z,88.02
2018-04-06T04:49:23.980Z,85.31
2018-04-06T04:50:23.967Z,85.41
2018-04-06T04:51:23.938Z,85.13
2018-04-06T04:52:23.954Z,85.13
2018-04-06T04:53:23.916Z,85.17
2018-04-06T04:54:33.630Z,85.27
2018-04-06T04:56:17.319Z,85.17
2018-04-06T04:57:17.289Z,84.84
2018-04-06T04:58:17.262Z,84.80
2018-04-06T04:59:17.287Z,85.36
2018-04-06T05:00:17.252Z,87.16
2018-04-06T05:01:17.229Z,87.35
2018-04-06T05:02:17.236Z,86.79
2018-04-06T05:03:17.217Z,86.69
2018-04-06T05:04:17.202Z,86.41
2018-04-06T05:05:17.209Z,86.03
2018-04-06T05:06:17.190Z,85.60
2018-04-06T05:07:17.177Z,85.46
2018-04-06T05:08:17.165Z,85.36
2018-04-06T05:09:17.160Z,86.12
2018-04-06T05:10:17.146Z,86.41
2018-04-06T05:11:17.146Z,85.46
2018-04-06T05:12:17.158Z,85.46
2018-04-06T05:13:17.149Z,85.46
2018-04-06T05:14:17.108Z,85.22
2018-04-06T05:15:17.102Z,84.74
2018-04-06T05:16:17.110Z,83.89
2018-04-06T05:18:38.137Z,81.56
2018-04-06T05:19:38.112Z,80.99
2018-04-06T05:20:38.098Z,81.47
2018-04-06T05:21:38.092Z,81.56
2018-04-06T05:22:38.100Z,81.56
2018-04-06T05:23:38.067Z,80.99
2018-04-06T05:24:38.098Z,80.52
2018-04-06T05:25:38.080Z,80.90
2018-04-06T05:26:38.041Z,80.04
2018-04-06T05:27:38.057Z,80.43
2018-04-06T05:28:38.023Z,80.90
2018-04-06T05:29:38.041Z,80.62
2018-04-06T05:30:38.012Z,80.43
2018-04-06T05:31:38.004Z,78.85
2018-04-06T05:32:37.993Z,77.62
2018-04-06T05:33:37.997Z,78.00
2018-04-06T05:34:37.987Z,77.18
2018-04-06T05:35:37.987Z,75.95
2018-04-06T05:36:38.015Z,76.14
2018-04-06T05:37:37.957Z,76.23
2018-04-06T05:38:37.986Z,74.47
2018-04-06T05:39:37.944Z,73.33
2018-04-06T05:40:37.939Z,70.51
2018-04-06T05:41:37.932Z,69.46
2018-04-06T05:42:37.928Z,70.95
2018-04-06T05:43:37.959Z,71.04
2018-04-06T05:44:37.911Z,72.09
2018-04-06T05:45:37.912Z,73.33
2018-04-06T05:46:37.901Z,72.19
2018-04-06T05:47:37.918Z,70.61
2018-04-06T05:48:37.902Z,70.04
2018-04-06T05:49:37.895Z,70.89
2018-04-06T05:50:37.885Z,70.95
2018-04-06T05:51:37.888Z,72.19
2018-04-06T05:52:37.856Z,70.89
2018-04-06T05:53:37.852Z,70.61
2018-04-06T05:54:37.848Z,67.98
2018-04-06T05:55:37.839Z,67.60
2018-04-06T05:56:37.830Z,67.50
2018-04-06T05:57:37.826Z,68.23
2018-04-06T05:58:37.838Z,68.65
2018-04-06T05:59:37.823Z,68.80
2018-04-06T06:00:37.807Z,68.46
2018-04-06T06:01:37.813Z,68.61
2018-04-06T06:02:37.809Z,68.74
2018-04-06T06:03:37.790Z,69.21
2018-04-06T06:04:37.783Z,68.13
2018-04-06T06:05:37.794Z,68.13
2018-04-06T06:06:37.797Z,68.90
2018-04-06T06:07:37.795Z,70.61
2018-04-06T06:08:37.837Z,72.06
2018-04-06T06:09:37.764Z,72.28
2018-04-06T06:10:37.754Z,73.57
2018-04-06T06:11:37.742Z,75.28
2018-04-06T06:12:37.737Z,76.14
2018-04-06T06:13:37.740Z,74.90
2018-04-06T06:14:37.744Z,75.19
2018-04-06T06:15:37.717Z,75.47
2018-04-06T06:16:37.709Z,74.43
2018-04-06T06:17:37.699Z,75.38
2018-04-06T06:18:37.714Z,75.67
2018-04-06T06:19:37.686Z,75.38
2018-04-06T06:20:37.681Z,75.09
2018-04-06T06:21:37.686Z,74.71
2018-04-06T06:22:37.682Z,74.90
2018-04-06T06:23:37.655Z,74.52
2018-04-06T06:24:37.655Z,74.62
2018-04-06T06:25:37.667Z,74.43
2018-04-06T06:26:37.636Z,73.96
2018-04-06T06:27:37.628Z,73.71
2018-04-06T06:28:37.624Z,74.24
2018-04-06T06:29:37.633Z,74.37
2018-04-06T06:30:37.604Z,73.61
2018-04-06T06:31:37.601Z,73.96
2018-04-06T06:32:37.621Z,73.99
2018-04-06T06:33:37.621Z,73.52
2018-04-06T06:34:37.578Z,73.80
2018-04-06T06:35:37.584Z,74.37
2018-04-06T06:36:37.573Z,73.80
2018-04-06T06:37:37.555Z,73.71
2018-04-06T06:38:37.548Z,73.76
2018-04-06T06:39:37.543Z,75.13
2018-04-06T06:40:37.530Z,74.56
2018-04-06T06:41:37.523Z,73.52
2018-04-06T06:42:37.523Z,72.75
2018-04-06T06:43:37.527Z,72.66
2018-04-06T06:44:37.516Z,74.08
2018-04-06T06:45:37.491Z,74.27
2018-04-06T06:46:37.498Z,73.61
2018-04-06T06:47:37.488Z,73.80
2018-04-06T06:48:37.479Z,73.33
2018-04-06T06:49:37.471Z,73.33
2018-04-06T06:50:37.474Z,74.08
2018-04-06T06:51:37.460Z,73.61
2018-04-06T06:52:37.446Z,73.14
2018-04-06T06:53:37.436Z,73.14
2018-04-06T06:54:37.456Z,72.79
2018-04-06T06:55:37.431Z,72.09
2018-04-06T06:56:37.421Z,73.42
2018-04-06T06:57:37.412Z,72.89
2018-04-06T06:58:37.434Z,72.03
2018-04-06T06:59:37.397Z,71.81
2018-04-06T07:00:37.442Z,72.51
2018-04-06T07:01:37.406Z,72.32
2018-04-06T07:02:37.389Z,72.00
2018-04-06T07:03:37.368Z,72.60
2018-04-06T07:04:37.408Z,72.22
2018-04-06T07:05:37.372Z,72.60
2018-04-06T07:06:37.362Z,71.75
2018-04-06T07:07:37.346Z,72.03
2018-04-06T07:08:37.362Z,72.03
2018-04-06T07:09:37.329Z,71.84
2018-04-06T07:10:37.329Z,70.74
2018-04-06T07:11:37.460Z,70.51
2018-04-06T07:12:37.325Z,70.79
2018-04-06T07:13:37.316Z,71.56
2018-04-06T07:14:37.296Z,71.27
2018-04-06T07:15:37.445Z,71.27
2018-04-06T07:16:37.285Z,71.75
2018-04-06T07:17:37.284Z,70.79
2018-04-06T07:18:37.261Z,70.23
2018-04-06T07:19:37.301Z,70.70
2018-04-06T07:20:37.277Z,70.70
2018-04-06T07:21:37.432Z,71.27
2018-04-06T07:22:37.237Z,70.89
2018-04-06T07:23:37.231Z,70.89
2018-04-06T07:24:37.241Z,70.23
2018-04-06T07:25:37.312Z,70.13
2018-04-06T07:26:37.230Z,70.23
2018-04-06T07:27:37.242Z,69.85
2018-04-06T07:28:37.216Z,70.79
2018-04-06T07:29:37.187Z,70.23
2018-04-06T07:30:37.180Z,70.32
2018-04-06T07:31:37.185Z,69.85
2018-04-06T07:32:37.169Z,70.61
2018-04-06T07:33:37.161Z,70.61
2018-04-06T07:34:37.344Z,70.13
2018-04-06T07:35:37.162Z,70.64
2018-04-06T07:36:37.171Z,69.50
2018-04-06T07:37:37.150Z,69.66
2018-04-06T07:38:37.127Z,70.17
2018-04-06T07:39:37.129Z,69.50
2018-04-06T07:40:37.213Z,69.69
2018-04-06T07:41:37.109Z,69.31
2018-04-06T07:42:37.108Z,68.93
2018-04-06T07:43:37.105Z,69.12
2018-04-06T07:44:37.083Z,69.98
2018-04-06T07:45:45.828Z,68.93
2018-04-06T07:47:30.486Z,68.93
2018-04-06T07:48:30.487Z,68.93
2018-04-06T07:49:30.508Z,69.12
2018-04-06T07:50:30.458Z,68.65
2018-04-06T07:51:30.442Z,69.02
2018-04-06T07:53:52.493Z,69.12
2018-04-06T07:54:52.495Z,68.46
2018-04-06T07:55:52.473Z,67.88
2018-04-06T07:56:52.458Z,68.87
2018-04-06T07:57:52.464Z,68.46
2018-04-06T07:58:52.476Z,68.27
2018-04-06T07:59:52.439Z,68.65
2018-04-06T08:00:52.429Z,68.17
2018-04-06T08:01:52.422Z,68.87
2018-04-06T08:02:52.425Z,67.92
2018-04-06T08:03:52.416Z,67.44
2018-04-06T08:04:52.435Z,68.27
2018-04-06T08:05:52.421Z,67.54
2018-04-06T08:06:52.395Z,67.63
2018-04-06T08:07:52.383Z,66.68
2018-04-06T08:08:52.387Z,67.44
2018-04-06T08:09:52.373Z,66.78
2018-04-06T08:10:52.362Z,67.63
2018-04-06T08:11:52.519Z,67.63
2018-04-06T08:12:52.372Z,67.63
2018-04-06T08:13:52.357Z,67.73
2018-04-06T08:14:52.345Z,67.44
2018-04-06T08:15:52.338Z,67.44
2018-04-06T08:16:52.397Z,67.25
2018-04-06T08:17:52.318Z,66.97
2018-04-06T08:18:52.317Z,66.91
2018-04-06T08:19:52.333Z,67.57
2018-04-06T08:20:52.325Z,66.62
2018-04-06T08:21:52.463Z,66.49
2018-04-06T08:22:52.305Z,66.49
2018-04-06T08:23:52.284Z,66.78
2018-04-06T08:24:52.278Z,66.49
2018-04-06T08:25:52.271Z,66.02
2018-04-06T08:26:52.271Z,66.43
2018-04-06T08:27:52.256Z,66.62
2018-04-06T08:28:52.274Z,67.00
2018-04-06T08:29:52.259Z,66.53
2018-04-06T08:30:52.240Z,65.58
2018-04-06T08:31:52.231Z,66.05
2018-04-06T08:32:52.423Z,65.86
2018-04-06T08:33:52.224Z,65.48
2018-04-06T08:34:52.243Z,65.58
2018-04-06T08:35:52.319Z,65.38
2018-04-06T08:36:52.225Z,65.29
2018-04-06T08:37:52.242Z,65.86
2018-04-06T08:38:52.276Z,65.77
2018-04-06T08:39:52.186Z,65.38
2018-04-06T08:40:52.227Z,65.29
2018-04-06T08:41:52.185Z,65.61
2018-04-06T08:42:52.184Z,64.90
2018-04-06T08:43:52.320Z,65.10
2018-04-06T08:44:52.258Z,65.32
2018-04-06T08:45:52.255Z,65.51
2018-04-06T08:46:52.216Z,65.13
2018-04-06T08:47:52.136Z,64.62
2018-04-06T08:48:52.248Z,65.38
2018-04-06T08:49:52.436Z,65.32
2018-04-06T08:50:52.132Z,64.62
2018-04-06T08:51:52.147Z,65.23
2018-04-06T08:52:52.110Z,64.75
2018-04-06T08:53:52.180Z,64.18
2018-04-06T08:54:52.209Z,65.13
2018-04-06T08:55:52.098Z,63.89
2018-04-06T08:56:52.147Z,63.70
2018-04-06T08:57:52.079Z,63.70
2018-04-06T08:58:52.084Z,63.42
2018-04-06T08:59:53.340Z,63.32
2018-04-06T09:00:52.129Z,64.18
2018-04-06T09:01:52.172Z,64.28
2018-04-06T09:02:52.082Z,64.18
2018-04-06T09:03:52.045Z,63.89
2018-04-06T09:04:52.039Z,63.23
2018-04-06T09:05:52.037Z,63.23
2018-04-06T09:06:52.055Z,63.70
2018-04-06T09:07:52.278Z,63.42
2018-04-06T09:08:52.054Z,63.32
2018-04-06T09:09:52.258Z,63.13
2018-04-06T09:10:52.531Z,63.32
2018-04-06T09:11:52.026Z,62.65
2018-04-06T09:12:52.005Z,63.64
2018-04-06T09:13:52.047Z,61.80
2018-04-06T09:14:52.004Z,62.12
2018-04-06T09:15:51.985Z,62.59
2018-04-06T09:16:52.037Z,61.83
2018-04-06T09:17:51.976Z,61.83
2018-04-06T09:18:51.966Z,61.54
2018-04-06T09:19:51.998Z,60.78
2018-04-06T09:20:51.951Z,61.54
2018-04-06T09:21:51.939Z,61.45
2018-04-06T09:22:51.936Z,61.07
2018-04-06T09:23:51.940Z,60.59
2018-04-06T09:24:51.922Z,60.97
2018-04-06T09:25:51.938Z,60.62
2018-04-06T09:26:51.913Z,58.97
2018-04-06T09:27:51.905Z,59.95
2018-04-06T09:28:51.909Z,58.62
2018-04-06T09:29:51.896Z,58.40
2018-04-06T09:30:51.894Z,58.91
2018-04-06T09:31:51.893Z,58.24
2018-04-06T09:32:51.882Z,58.24
2018-04-06T09:33:51.887Z,57.95
2018-04-06T09:34:51.868Z,57.48
2018-04-06T09:35:51.863Z,58.91
2018-04-06T09:36:51.860Z,58.91
2018-04-06T09:37:51.850Z,59.00
2018-04-06T09:38:51.849Z,59.19
2018-04-06T09:39:51.846Z,59.28
2018-04-06T09:40:51.858Z,59.86
2018-04-06T09:41:51.840Z,57.95
2018-04-06T09:42:51.828Z,58.07
2018-04-06T09:43:51.821Z,57.86
2018-04-06T09:44:51.878Z,57.76
2018-04-06T09:45:51.823Z,57.38
2018-04-06T09:46:51.819Z,58.07
2018-04-06T09:47:51.805Z,57.89
2018-04-06T09:48:51.808Z,55.95
2018-04-06T09:49:51.817Z,55.57
2018-04-06T09:50:51.796Z,55.69
2018-04-06T09:51:51.797Z,56.07
2018-04-06T09:52:51.784Z,56.55
2018-04-06T09:53:51.784Z,56.93
2018-04-06T09:54:51.781Z,55.98
2018-04-06T09:55:51.803Z,56.26
2018-04-06T09:56:51.768Z,54.93
2018-04-06T09:57:51.766Z,55.21
2018-04-06T09:58:51.769Z,54.83
2018-04-06T09:59:51.766Z,54.74
2018-04-06T10:00:51.760Z,53.88
2018-04-06T10:01:51.739Z,53.78
2018-04-06T10:02:51.755Z,53.81
2018-04-06T10:03:51.732Z,53.91
2018-04-06T10:04:51.734Z,53.53
2018-04-06T10:05:51.744Z,54.17
2018-04-06T10:06:51.758Z,54.07
2018-04-06T10:07:51.718Z,53.88
2018-04-06T10:08:51.730Z,54.00
2018-04-06T10:09:51.711Z,54.19
2018-04-06T10:10:51.772Z,55.05
2018-04-06T10:11:51.703Z,54.29
2018-04-06T10:12:51.690Z,52.73
2018-04-06T10:13:51.690Z,53.12
2018-04-06T10:14:51.682Z,54.19
2018-04-06T10:15:51.690Z,54.00
2018-04-06T10:16:51.684Z,53.72
2018-04-06T10:17:51.679Z,53.62
2018-04-06T10:18:51.676Z,53.62
2018-04-06T10:19:51.664Z,53.62
2018-04-06T10:20:51.658Z,52.95
2018-04-06T10:21:51.688Z,53.05
2018-04-06T10:22:51.667Z,54.22
2018-04-06T10:23:51.736Z,54.00
2018-04-06T10:24:51.658Z,54.19
2018-04-06T10:25:51.640Z,54.67
2018-04-06T10:26:51.665Z,54.00
2018-04-06T10:27:51.649Z,54.29
2018-04-06T10:28:51.650Z,53.65
2018-04-06T10:29:51.616Z,52.76
2018-04-06T10:30:51.641Z,52.88
2018-04-06T10:31:51.616Z,53.74
2018-04-06T10:32:51.618Z,53.74
2018-04-06T10:33:51.683Z,52.69
2018-04-06T10:34:51.624Z,52.79
2018-04-06T10:35:51.609Z,52.12
2018-04-06T10:36:51.619Z,52.03
2018-04-06T10:37:51.632Z,51.90
2018-04-06T10:38:51.615Z,52.22
2018-04-06T10:39:51.584Z,52.43
2018-04-06T10:40:51.586Z,52.69
2018-04-06T10:41:51.585Z,52.12
2018-04-06T10:42:51.574Z,51.64
2018-04-06T10:44:00.218Z,51.64
2018-04-06T10:45:45.008Z,52.22
2018-04-06T10:46:53.616Z,51.54
2018-04-06T10:48:38.370Z,51.45
2018-04-06T10:49:38.346Z,51.64
2018-04-06T10:50:38.370Z,51.45
2018-04-06T10:51:38.339Z,51.74
2018-04-06T10:52:46.996Z,51.64
2018-04-06T10:54:31.741Z,51.74
2018-04-06T10:55:31.713Z,51.07
2018-04-06T10:56:31.717Z,51.00
2018-04-06T10:57:31.708Z,50.62
2018-04-06T10:58:31.715Z,50.52
2018-04-06T10:59:31.710Z,51.67
2018-04-06T11:00:31.693Z,51.09
2018-04-06T11:01:31.700Z,50.33
2018-04-06T11:02:31.701Z,51.38
2018-04-06T11:03:31.698Z,51.00
2018-04-06T11:04:31.685Z,50.81
2018-04-06T11:05:31.674Z,51.00
2018-04-06T11:06:31.670Z,49.95
2018-04-06T11:07:31.668Z,49.95
2018-04-06T11:08:31.668Z,50.52
2018-04-06T11:09:31.673Z,49.28
2018-04-06T11:10:31.656Z,50.07
2018-04-06T11:11:31.663Z,50.33
2018-04-06T11:12:31.667Z,48.90
2018-04-06T11:13:31.664Z,48.99
2018-04-06T11:14:31.644Z,48.64
2018-04-06T11:15:31.636Z,49.88
2018-04-06T11:16:31.640Z,48.73
2018-04-06T11:17:31.643Z,48.25
2018-04-06T11:18:31.633Z,47.47
2018-04-06T11:19:31.624Z,47.47
2018-04-06T11:20:31.658Z,47.18
2018-04-06T11:21:31.627Z,49.11
2018-04-06T11:22:31.618Z,48.25
2018-04-06T11:23:31.614Z,47.58
2018-04-06T11:24:31.613Z,46.72
2018-04-06T11:25:31.608Z,46.82
2018-04-06T11:26:31.602Z,47.20
2018-04-06T11:27:31.600Z,47.13
2018-04-06T11:28:31.602Z,48.18
2018-04-06T11:29:31.592Z,46.66
2018-04-06T11:30:31.598Z,47.99
2018-04-06T11:31:31.599Z,48.38
2018-04-06T11:32:31.601Z,47.87
2018-04-06T11:33:31.581Z,45.98
2018-04-06T11:34:31.583Z,46.17
2018-04-06T11:35:31.575Z,46.37
2018-04-06T11:36:31.569Z,46.08
2018-04-06T11:37:31.570Z,47.20
2018-04-06T11:38:31.568Z,47.39
2018-04-06T11:39:31.571Z,47.11
2018-04-06T11:40:31.561Z,47.32
2018-04-06T11:41:31.564Z,46.17
2018-04-06T11:42:31.574Z,46.39
2018-04-06T11:43:31.555Z,45.81
2018-04-06T11:44:31.550Z,44.86
2018-04-06T11:45:31.547Z,44.86
2018-04-06T11:46:31.543Z,44.95
2018-04-06T11:47:31.552Z,44.57
2018-04-06T11:48:31.562Z,43.69
2018-04-06T11:49:31.538Z,43.62
2018-04-06T11:50:31.548Z,44.07
2018-04-06T11:51:31.550Z,44.65
2018-04-06T11:52:31.540Z,44.93
2018-04-06T11:53:31.538Z,45.15
2018-04-06T11:54:31.537Z,44.86
2018-04-06T11:55:31.523Z,43.69
2018-04-06T11:56:31.516Z,43.79
2018-04-06T11:57:31.517Z,44.48
2018-04-06T11:58:31.570Z,44.95
2018-04-06T11:59:31.511Z,43.80
2018-04-06T12:00:31.510Z,43.23
2018-04-06T12:01:31.502Z,43.80
2018-04-06T12:02:31.506Z,44.76
2018-04-06T12:03:31.511Z,44.31
2018-04-06T12:04:31.523Z,44.76
2018-04-06T12:05:31.507Z,43.04
2018-04-06T12:06:31.491Z,44.48
2018-04-06T12:07:31.493Z,44.67
2018-04-06T12:08:31.485Z,44.74
2018-04-06T12:09:31.486Z,44.95
2018-04-06T12:10:31.487Z,43.50
2018-04-06T12:11:31.485Z,44.86
2018-04-06T12:12:31.490Z,44.88
2018-04-06T12:13:31.477Z,43.04
2018-04-06T12:14:31.486Z,43.43
2018-04-06T12:15:31.492Z,43.73
2018-04-06T12:16:31.473Z,44.88
2018-04-06T12:17:31.467Z,43.73
2018-04-06T12:18:31.467Z,43.43
2018-04-06T12:19:31.498Z,43.23
2018-04-06T12:20:31.461Z,43.62
2018-04-06T12:21:31.464Z,43.52
2018-04-06T12:22:31.460Z,43.14
2018-04-06T12:23:31.460Z,42.77
2018-04-06T12:24:31.449Z,43.92
2018-04-06T12:25:31.450Z,43.06
2018-04-06T12:26:31.453Z,42.85
2018-04-06T12:27:31.457Z,42.30
2018-04-06T12:28:31.457Z,42.18
2018-04-06T12:29:31.438Z,42.87
2018-04-06T12:30:31.438Z,41.22
2018-04-06T12:31:31.453Z,41.72
2018-04-06T12:32:31.454Z,41.72
2018-04-06T12:33:31.436Z,42.11
2018-04-06T12:34:31.465Z,41.46
2018-04-06T12:35:31.475Z,41.07
2018-04-06T12:36:31.478Z,41.27
2018-04-06T12:37:31.479Z,41.34
2018-04-06T12:38:31.434Z,41.63
2018-04-06T12:39:31.446Z,42.11
2018-04-06T12:40:31.437Z,41.82
2018-04-06T12:41:31.420Z,41.53
2018-04-06T12:42:31.422Z,42.03
2018-04-06T12:43:31.420Z,42.22
2018-04-06T12:44:31.412Z,41.24
2018-04-06T12:45:31.408Z,40.58
2018-04-06T12:46:31.416Z,41.24
2018-04-06T12:47:31.414Z,41.74
2018-04-06T12:48:31.426Z,40.78
2018-04-06T12:49:31.407Z,40.29
2018-04-06T12:50:31.422Z,40.95
2018-04-06T12:51:31.397Z,40.48
2018-04-06T12:52:31.394Z,40.48
2018-04-06T12:53:31.401Z,41.17
2018-04-06T12:54:31.422Z,41.74
2018-04-06T12:55:31.398Z,41.07
2018-04-06T12:56:31.394Z,39.90
2018-04-06T12:57:31.387Z,40.29
2018-04-06T12:58:31.395Z,40.31
2018-04-06T12:59:31.400Z,40.29
2018-04-06T13:00:31.388Z,41.05
2018-04-06T13:01:31.411Z,41.34
2018-04-06T13:02:31.403Z,40.67
2018-04-06T13:03:31.376Z,40.98
2018-04-06T13:04:31.375Z,41.36
2018-04-06T13:05:31.383Z,40.41
2018-04-06T13:06:31.369Z,40.50
2018-04-06T13:07:31.371Z,40.58
2018-04-06T13:08:31.368Z,40.77
2018-04-06T13:09:31.365Z,41.05
2018-04-06T13:10:31.412Z,41.34
2018-04-06T13:11:31.360Z,41.17
2018-04-06T13:12:31.371Z,40.42
2018-04-06T13:13:31.378Z,39.83
2018-04-06T13:14:31.367Z,39.92
2018-04-06T13:15:31.370Z,40.50
2018-04-06T13:16:31.399Z,40.77
2018-04-06T13:17:31.375Z,41.38
2018-04-06T13:18:31.356Z,38.96
2018-04-06T13:19:31.364Z,39.25
2018-04-06T13:20:31.351Z,38.89
2018-04-06T13:21:31.353Z,40.21
2018-04-06T13:22:31.382Z,39.73